createdAt,value
2018-05-13T00:00:09.888Z,14.61
2018-05-13T00:02:35.776Z,14.80
2018-05-13T00:05:01.647Z,14.67
2018-05-13T00:07:27.548Z,14.71
2018-05-13T00:09:54.364Z,14.68
2018-05-13T00:12:20.232Z,14.75
2018-05-13T00:14:46.084Z,14.41
2018-05-13T00:17:11.901Z,14.25
2018-05-13T00:19:37.768Z,14.38
2018-05-13T00:22:03.648Z,14.59
2018-05-13T00:24:29.504Z,14.56
2018-05-13T00:26:55.358Z,14.46
2018-05-13T00:29:21.751Z,14.50
2018-05-13T00:31:47.629Z,14.44
2018-05-13T00:34:13.446Z,14.33
2018-05-13T00:36:39.313Z,14.44
2018-05-13T00:39:05.201Z,14.38
2018-05-13T00:41:31.091Z,14.40
2018-05-13T00:43:56.926Z,14.37
2018-05-13T00:46:22.803Z,14.22
2018-05-13T00:48:48.668Z,14.16
2018-05-13T00:51:14.518Z,13.96
2018-05-13T00:53:40.356Z,13.97
2018-05-13T00:56:06.213Z,13.94
2018-05-13T00:58:32.046Z,13.94
2018-05-13T01:00:57.889Z,14.09
2018-05-13T01:03:23.736Z,14.10
2018-05-13T01:05:49.574Z,14.14
2018-05-13T01:08:15.420Z,14.22
2018-05-13T01:10:41.271Z,13.95
2018-05-13T01:13:07.156Z,13.78
2018-05-13T01:15:33.018Z,13.67
2018-05-13T01:17:58.897Z,13.85
2018-05-13T01:20:24.753Z,13.97
2018-05-13T01:22:50.590Z,14.09
2018-05-13T01:25:16.460Z,13.72
2018-05-13T01:27:42.296Z,13.80
2018-05-13T01:30:08.148Z,13.78
2018-05-13T01:32:34.001Z,13.44
2018-05-13T01:34:59.865Z,13.79
2018-05-13T01:37:25.720Z,13.85
2018-05-13T01:39:51.593Z,13.80
2018-05-13T01:42:17.485Z,13.58
2018-05-13T01:44:43.376Z,13.69
2018-05-13T01:47:09.260Z,13.58
2018-05-13T01:49:35.108Z,13.53
2018-05-13T01:52:00.977Z,13.64
2018-05-13T01:54:26.813Z,13.51
2018-05-13T01:56:52.677Z,13.34
2018-05-13T01:59:18.508Z,13.23
2018-05-13T02:01:44.382Z,12.95
2018-05-13T02:04:10.781Z,12.94
2018-05-13T02:06:36.669Z,13.18
2018-05-13T02:09:03.628Z,13.22
2018-05-13T02:11:29.547Z,13.35
2018-05-13T02:13:55.397Z,13.47
2018-05-13T02:16:21.220Z,13.35
2018-05-13T02:18:47.889Z,13.40
2018-05-13T02:21:13.750Z,13.43
2018-05-13T02:23:39.594Z,13.41
2018-05-13T02:26:05.471Z,13.41
2018-05-13T02:28:31.364Z,13.48
2018-05-13T02:30:57.205Z,13.22
2018-05-13T02:33:23.070Z,13.01
2018-05-13T02:35:48.896Z,12.63
2018-05-13T02:38:14.736Z,12.97
2018-05-13T02:40:40.559Z,13.09
2018-05-13T02:43:06.444Z,13.02
2018-05-13T02:45:32.313Z,13.14
2018-05-13T02:47:58.170Z,13.19
2018-05-13T02:50:24.019Z,13.15
2018-05-13T02:52:49.890Z,13.00
2018-05-13T02:55:15.764Z,12.87
2018-05-13T02:57:41.633Z,12.59
2018-05-13T03:00:07.484Z,12.54
2018-05-13T03:02:33.309Z,12.55
2018-05-13T03:04:59.368Z,12.68
2018-05-13T03:07:25.224Z,12.81
2018-05-13T03:09:51.066Z,12.93
2018-05-13T03:12:16.929Z,12.90
2018-05-13T03:14:42.829Z,12.71
2018-05-13T03:17:09.621Z,12.76
2018-05-13T03:19:35.491Z,12.84
2018-05-13T03:22:01.339Z,12.87
2018-05-13T03:24:27.232Z,12.78
2018-05-13T03:26:53.082Z,12.72
2018-05-13T03:29:18.913Z,12.35
2018-05-13T03:31:44.750Z,12.19
2018-05-13T03:34:10.600Z,12.21
2018-05-13T03:36:36.440Z,12.39
2018-05-13T03:39:02.384Z,12.46
2018-05-13T03:41:28.245Z,12.56
2018-05-13T03:43:54.117Z,12.49
2018-05-13T03:46:20.049Z,12.50
2018-05-13T03:48:45.850Z,12.36
2018-05-13T03:51:11.761Z,12.40
2018-05-13T03:53:37.593Z,12.36
2018-05-13T03:56:03.416Z,12.49
2018-05-13T03:58:29.234Z,12.44
2018-05-13T04:00:55.100Z,12.45
2018-05-13T04:03:21.653Z,12.58
2018-05-13T04:05:47.545Z,11.96
2018-05-13T04:11:38.612Z,12.08
2018-05-13T04:14:16.958Z,12.27
2018-05-13T04:16:42.830Z,12.38
2018-05-13T04:19:08.699Z,12.49
2018-05-13T04:21:34.542Z,12.52
2018-05-13T04:24:00.378Z,12.64
2018-05-13T04:26:26.271Z,12.72
2018-05-13T04:28:52.125Z,12.45
2018-05-13T04:31:17.978Z,12.68
2018-05-13T04:33:43.817Z,12.76
2018-05-13T04:36:09.641Z,12.88
2018-05-13T04:38:35.512Z,12.97
2018-05-13T04:41:01.338Z,12.98
2018-05-13T04:43:27.252Z,12.77
2018-05-13T04:45:53.124Z,12.87
2018-05-13T04:48:18.993Z,13.00
2018-05-13T04:50:44.863Z,13.10
2018-05-13T04:53:10.745Z,13.09
2018-05-13T04:55:36.605Z,13.12
2018-05-13T04:58:02.488Z,13.14
2018-05-13T05:00:28.397Z,13.31
2018-05-13T05:02:54.258Z,13.27
2018-05-13T05:05:20.124Z,13.56
2018-05-13T05:07:45.989Z,13.80
2018-05-13T05:10:11.845Z,13.89
2018-05-13T05:12:37.684Z,14.07
2018-05-13T05:15:03.582Z,14.21
2018-05-13T05:17:29.452Z,14.37
2018-05-13T05:19:55.372Z,14.58
2018-05-13T05:22:21.217Z,14.78
2018-05-13T05:24:47.058Z,14.88
2018-05-13T05:27:12.881Z,15.08
2018-05-13T05:29:38.738Z,15.27
2018-05-13T05:32:04.585Z,15.44
2018-05-13T05:34:30.483Z,15.77
2018-05-13T05:36:56.366Z,16.04
2018-05-13T05:39:22.201Z,16.27
2018-05-13T05:41:48.141Z,16.46
2018-05-13T05:44:13.986Z,16.66
2018-05-13T05:46:39.916Z,17.05
2018-05-13T05:49:05.780Z,17.32
2018-05-13T05:51:31.621Z,17.51
2018-05-13T05:53:57.476Z,17.81
2018-05-13T05:56:23.366Z,17.90
2018-05-13T05:58:49.324Z,18.30
2018-05-13T06:01:15.190Z,18.03
2018-05-13T06:03:41.040Z,18.15
2018-05-13T06:06:06.873Z,18.23
2018-05-13T06:08:32.701Z,18.35
2018-05-13T06:10:58.544Z,18.45
2018-05-13T06:13:24.401Z,18.68
2018-05-13T06:15:50.286Z,18.84
2018-05-13T06:18:16.145Z,18.73
2018-05-13T06:20:42.027Z,18.77
2018-05-13T06:23:07.884Z,18.82
2018-05-13T06:25:33.732Z,19.13
2018-05-13T06:27:59.600Z,19.23
2018-05-13T06:30:25.493Z,19.20
2018-05-13T06:32:51.343Z,19.26
2018-05-13T06:35:17.239Z,19.34
2018-05-13T06:37:43.133Z,19.61
2018-05-13T06:40:08.997Z,19.27
2018-05-13T06:42:34.853Z,19.29
2018-05-13T06:45:00.733Z,19.48
2018-05-13T06:47:26.597Z,19.69
2018-05-13T06:49:52.453Z,19.99
2018-05-13T06:52:18.313Z,20.40
2018-05-13T06:54:44.153Z,20.50
2018-05-13T06:57:10.286Z,20.48
2018-05-13T06:59:36.133Z,20.58
2018-05-13T07:02:01.985Z,20.69
2018-05-13T07:04:27.836Z,20.87
2018-05-13T07:06:53.714Z,21.20
2018-05-13T07:09:19.580Z,21.27
2018-05-13T07:11:45.416Z,21.53
2018-05-13T07:14:11.268Z,21.56
2018-05-13T07:16:37.125Z,21.77
2018-05-13T07:19:02.984Z,21.50
2018-05-13T07:21:28.833Z,21.45
2018-05-13T07:23:54.653Z,21.71
2018-05-13T07:26:20.481Z,21.55
2018-05-13T07:28:46.355Z,21.51
2018-05-13T07:31:12.154Z,21.61
2018-05-13T07:33:38.000Z,21.85
2018-05-13T07:36:03.833Z,22.31
2018-05-13T07:38:29.720Z,22.69
2018-05-13T07:40:55.608Z,22.29
2018-05-13T07:43:21.566Z,22.33
2018-05-13T07:45:47.385Z,22.85
2018-05-13T07:48:13.260Z,22.93
2018-05-13T07:50:39.113Z,23.04
2018-05-13T07:53:04.980Z,23.24
2018-05-13T07:55:30.870Z,23.14
2018-05-13T07:57:56.730Z,23.02
2018-05-13T08:00:22.576Z,23.03
2018-05-13T08:02:48.471Z,23.08
2018-05-13T08:05:14.320Z,23.34
2018-05-13T08:07:40.144Z,23.63
2018-05-13T08:10:06.000Z,23.60
2018-05-13T08:12:31.844Z,23.50
2018-05-13T08:14:57.713Z,23.38
2018-05-13T08:17:23.569Z,23.87
2018-05-13T08:19:49.384Z,23.22
2018-05-13T08:22:15.243Z,23.27
2018-05-13T08:24:41.118Z,23.27
2018-05-13T08:27:06.985Z,23.46
2018-05-13T08:29:32.825Z,23.89
2018-05-13T08:31:58.688Z,23.92
2018-05-13T08:34:24.522Z,23.47
2018-05-13T08:36:50.390Z,23.55
2018-05-13T08:39:16.231Z,23.86
2018-05-13T08:41:42.084Z,24.02
2018-05-13T08:44:07.920Z,23.86
2018-05-13T08:46:33.751Z,23.84
2018-05-13T08:48:59.605Z,24.19
2018-05-13T08:51:25.453Z,23.95
2018-05-13T08:53:52.116Z,23.73
2018-05-13T08:56:18.011Z,24.17
2018-05-13T08:58:43.889Z,24.56
2018-05-13T09:01:09.737Z,24.21
2018-05-13T09:03:35.581Z,24.47
2018-05-13T09:06:01.445Z,24.44
2018-05-13T09:08:27.377Z,23.66
2018-05-13T09:10:53.149Z,23.51
2018-05-13T09:13:19.017Z,23.87
2018-05-13T09:15:44.865Z,24.40
2018-05-13T09:18:10.685Z,24.25
2018-05-13T09:20:36.631Z,24.18
2018-05-13T09:23:02.410Z,23.91
2018-05-13T09:25:28.251Z,23.99
2018-05-13T09:27:54.070Z,24.12
2018-05-13T09:30:19.929Z,24.49
2018-05-13T09:32:45.749Z,25.18
2018-05-13T09:35:11.621Z,25.40
2018-05-13T09:37:37.485Z,24.70
2018-05-13T09:40:03.444Z,24.65
2018-05-13T09:42:29.273Z,24.76
2018-05-13T09:44:55.087Z,25.07
2018-05-13T09:47:21.022Z,24.97
2018-05-13T09:49:46.842Z,25.00
2018-05-13T09:52:12.701Z,24.79
2018-05-13T09:54:38.544Z,25.03
2018-05-13T09:57:04.425Z,25.25
2018-05-13T09:59:30.278Z,25.22
2018-05-13T10:01:56.137Z,25.38
2018-05-13T10:04:21.976Z,25.44
2018-05-13T10:06:47.842Z,25.16
2018-05-13T10:09:13.688Z,25.17
2018-05-13T10:11:39.556Z,25.53
2018-05-13T10:14:05.424Z,25.85
2018-05-13T10:16:31.328Z,26.06
2018-05-13T10:18:57.129Z,25.91
2018-05-13T10:21:22.972Z,26.08
2018-05-13T10:23:48.828Z,25.78
2018-05-13T10:26:14.685Z,25.40
2018-05-13T10:28:40.561Z,25.60
2018-05-13T10:31:06.423Z,25.99
2018-05-13T10:33:32.283Z,25.28
2018-05-13T10:35:58.168Z,25.58
2018-05-13T10:38:24.025Z,26.11
2018-05-13T10:40:49.856Z,26.22
2018-05-13T10:43:15.695Z,26.22
2018-05-13T10:45:41.563Z,26.36
2018-05-13T10:48:07.425Z,26.31
2018-05-13T10:50:33.310Z,26.30
2018-05-13T10:52:59.180Z,26.38
2018-05-13T10:55:25.041Z,25.82
2018-05-13T10:57:50.902Z,26.66
2018-05-13T11:00:16.731Z,27.02
2018-05-13T11:02:42.609Z,27.02
2018-05-13T11:05:08.486Z,25.87
2018-05-13T11:07:34.336Z,25.27
2018-05-13T11:10:00.192Z,25.92
2018-05-13T11:12:26.030Z,26.03
2018-05-13T11:14:51.881Z,25.34
2018-05-13T11:17:17.801Z,25.34
2018-05-13T11:19:43.708Z,25.84
2018-05-13T11:22:09.545Z,25.67
2018-05-13T11:24:35.407Z,25.54
2018-05-13T11:27:01.297Z,25.32
2018-05-13T11:29:27.191Z,25.76
2018-05-13T11:31:53.011Z,26.28
2018-05-13T11:34:18.874Z,27.01
2018-05-13T11:36:45.373Z,25.55
2018-05-13T11:39:11.252Z,25.37
2018-05-13T11:41:37.099Z,26.06
2018-05-13T11:44:02.937Z,25.83
2018-05-13T11:46:28.803Z,26.18
2018-05-13T11:48:54.655Z,26.56
2018-05-13T11:51:20.529Z,26.94
2018-05-13T11:53:46.364Z,27.10
2018-05-13T11:56:12.222Z,25.92
2018-05-13T11:58:38.049Z,26.02
2018-05-13T12:01:03.921Z,26.51
2018-05-13T12:03:29.779Z,26.25
2018-05-13T12:05:55.660Z,26.49
2018-05-13T12:08:21.544Z,27.20
2018-05-13T12:10:47.422Z,27.49
2018-05-13T12:13:13.240Z,26.78
2018-05-13T12:15:39.104Z,26.80
2018-05-13T12:18:04.973Z,26.49
2018-05-13T12:20:30.860Z,25.86
2018-05-13T12:22:56.700Z,26.05
2018-05-13T12:25:22.552Z,26.99
2018-05-13T12:27:48.408Z,28.17
2018-05-13T12:30:14.273Z,27.90
2018-05-13T12:32:40.161Z,27.54
2018-05-13T12:35:06.057Z,28.12
2018-05-13T12:37:31.919Z,27.69
2018-05-13T12:39:57.773Z,26.92
2018-05-13T12:42:23.669Z,26.74
2018-05-13T12:44:49.553Z,26.56
2018-05-13T12:47:15.416Z,26.17
2018-05-13T12:49:41.284Z,27.03
2018-05-13T12:52:07.121Z,27.60
2018-05-13T12:54:32.986Z,27.34
2018-05-13T12:56:58.857Z,27.34
2018-05-13T12:59:24.713Z,26.45
2018-05-13T13:01:50.556Z,27.29
2018-05-13T13:04:23.276Z,27.84
2018-05-13T13:06:49.131Z,27.67
2018-05-13T13:09:14.976Z,27.11
2018-05-13T13:11:40.859Z,27.07
2018-05-13T13:14:06.748Z,26.42
2018-05-13T13:16:32.633Z,26.76
2018-05-13T13:18:58.493Z,27.33
2018-05-13T13:21:24.369Z,27.97
2018-05-13T13:23:50.237Z,27.98
2018-05-13T13:26:16.132Z,28.43
2018-05-13T13:28:41.983Z,29.28
2018-05-13T13:31:07.842Z,28.19
2018-05-13T13:33:33.720Z,27.80
2018-05-13T13:35:59.572Z,26.94
2018-05-13T13:38:25.453Z,26.26
2018-05-13T13:40:51.294Z,26.19
2018-05-13T13:43:17.145Z,27.46
2018-05-13T13:45:43.028Z,27.40
2018-05-13T13:48:08.910Z,27.71
2018-05-13T13:50:34.766Z,28.33
2018-05-13T13:53:00.619Z,27.39
2018-05-13T13:55:26.488Z,27.03
2018-05-13T13:57:52.404Z,26.93
2018-05-13T14:00:18.302Z,28.14
2018-05-13T14:02:44.148Z,28.29
2018-05-13T14:05:09.989Z,28.62
2018-05-13T14:07:35.827Z,28.43
2018-05-13T14:10:01.700Z,28.70
2018-05-13T14:12:27.542Z,27.86
2018-05-13T14:14:53.397Z,26.91
2018-05-13T14:17:19.256Z,26.48
2018-05-13T14:19:45.095Z,26.38
2018-05-13T14:22:10.988Z,26.26
2018-05-13T14:24:36.861Z,26.20
2018-05-13T14:27:02.788Z,25.95
2018-05-13T14:29:28.551Z,25.80
2018-05-13T14:31:54.388Z,25.82
2018-05-13T14:34:20.224Z,25.88
2018-05-13T14:36:46.092Z,26.02
2018-05-13T14:39:12.259Z,25.48
2018-05-13T14:41:37.791Z,25.72
2018-05-13T14:44:03.708Z,25.79
2018-05-13T14:46:29.594Z,25.59
2018-05-13T14:48:55.451Z,25.43
2018-05-13T14:51:21.330Z,25.27
2018-05-13T14:53:47.201Z,25.30
2018-05-13T14:56:13.051Z,25.43
2018-05-13T14:58:38.908Z,25.67
2018-05-13T15:01:04.765Z,25.39
2018-05-13T15:03:30.597Z,25.67
2018-05-13T15:05:56.464Z,25.47
2018-05-13T15:08:22.278Z,25.12
2018-05-13T15:10:48.167Z,25.32
2018-05-13T15:13:14.031Z,25.20
2018-05-13T15:15:39.909Z,25.14
2018-05-13T15:18:05.785Z,24.81
2018-05-13T15:20:31.636Z,24.66
2018-05-13T15:22:57.493Z,24.49
2018-05-13T15:25:23.329Z,24.47
2018-05-13T15:27:49.229Z,24.77
2018-05-13T15:30:15.092Z,24.87
2018-05-13T15:32:40.956Z,24.66
2018-05-13T15:35:06.814Z,24.84
2018-05-13T15:37:32.660Z,25.00
2018-05-13T15:39:58.557Z,24.79
2018-05-13T15:42:24.465Z,25.04
2018-05-13T15:44:50.329Z,25.04
2018-05-13T15:47:16.221Z,25.07
2018-05-13T15:49:42.087Z,25.04
2018-05-13T15:52:07.963Z,25.15
2018-05-13T15:54:33.845Z,25.33
2018-05-13T15:56:59.761Z,25.33
2018-05-13T15:59:25.662Z,25.26
2018-05-13T16:01:51.549Z,25.26
2018-05-13T16:04:17.424Z,25.22
2018-05-13T16:06:43.339Z,25.33
2018-05-13T16:09:09.180Z,24.96
2018-05-13T16:11:35.042Z,24.93
2018-05-13T16:14:00.889Z,25.23
2018-05-13T16:16:26.778Z,25.21
2018-05-13T16:18:53.698Z,25.17
2018-05-13T16:21:19.607Z,24.50
2018-05-13T16:23:45.433Z,24.52
2018-05-13T16:26:11.283Z,24.57
2018-05-13T16:28:37.154Z,24.22
2018-05-13T16:31:03.004Z,24.00
2018-05-13T16:33:28.921Z,23.80
2018-05-13T16:35:54.805Z,23.82
2018-05-13T16:38:21.586Z,24.10
2018-05-13T16:40:47.441Z,23.93
2018-05-13T16:43:13.322Z,24.19
2018-05-13T16:45:39.161Z,24.37
2018-05-13T16:48:05.040Z,24.29
2018-05-13T16:50:30.893Z,24.35
2018-05-13T16:52:56.726Z,24.12
2018-05-13T16:55:22.574Z,24.14
2018-05-13T16:57:48.422Z,24.24
2018-05-13T17:00:14.274Z,24.19
2018-05-13T17:02:40.164Z,24.28
2018-05-13T17:05:06.067Z,24.17
2018-05-13T17:07:31.913Z,24.21
2018-05-13T17:09:57.760Z,24.38
2018-05-13T17:12:23.614Z,24.28
2018-05-13T17:14:49.512Z,24.30
2018-05-13T17:17:15.510Z,24.16
2018-05-13T17:19:41.313Z,24.43
2018-05-13T17:22:07.191Z,24.12
2018-05-13T17:24:33.076Z,24.21
2018-05-13T17:26:58.949Z,24.17
2018-05-13T17:29:24.812Z,24.03
2018-05-13T17:31:50.698Z,23.76
2018-05-13T17:34:16.660Z,23.85
2018-05-13T17:36:42.489Z,23.74
2018-05-13T17:39:08.387Z,23.53
2018-05-13T17:41:34.287Z,23.47
2018-05-13T17:44:00.145Z,23.64
2018-05-13T17:46:26.075Z,23.44
2018-05-13T17:48:51.967Z,23.39
2018-05-13T17:51:17.852Z,23.47
2018-05-13T17:53:43.745Z,23.40
2018-05-13T17:56:09.592Z,23.42
2018-05-13T17:58:35.459Z,23.26
2018-05-13T18:01:01.323Z,23.30
2018-05-13T18:03:27.202Z,23.32
2018-05-13T18:05:53.149Z,23.16
2018-05-13T18:08:19.028Z,23.16
2018-05-13T18:10:44.952Z,23.21
2018-05-13T18:13:10.851Z,23.06
2018-05-13T18:15:36.750Z,22.93
2018-05-13T18:18:02.623Z,22.95
2018-05-13T18:20:28.496Z,22.93
2018-05-13T18:22:54.332Z,22.83
2018-05-13T18:25:20.222Z,22.73
2018-05-13T18:27:46.034Z,22.64
2018-05-13T18:30:11.936Z,22.70
2018-05-13T18:32:37.797Z,22.55
2018-05-13T18:35:03.815Z,22.40
2018-05-13T18:37:29.701Z,22.37
2018-05-13T18:39:55.569Z,22.38
2018-05-13T18:42:21.464Z,22.46
2018-05-13T18:44:47.277Z,22.30
2018-05-13T18:47:13.173Z,22.13
2018-05-13T18:49:39.028Z,22.16
2018-05-13T18:52:04.868Z,22.18
2018-05-13T18:54:30.826Z,22.24
2018-05-13T18:56:56.651Z,22.21
2018-05-13T18:59:22.552Z,22.08
2018-05-13T19:01:48.412Z,22.09
2018-05-13T19:04:14.294Z,22.12
2018-05-13T19:06:40.154Z,22.17
2018-05-13T19:09:06.006Z,22.06
2018-05-13T19:11:31.856Z,22.12
2018-05-13T19:13:57.732Z,22.14
2018-05-13T19:16:23.578Z,22.17
2018-05-13T19:18:49.469Z,22.06
2018-05-13T19:21:15.341Z,22.21
2018-05-13T19:23:41.230Z,22.06
2018-05-13T19:26:07.094Z,22.11
2018-05-13T19:28:32.989Z,22.04
2018-05-13T19:30:58.904Z,22.02
2018-05-13T19:33:24.713Z,21.98
2018-05-13T19:35:50.587Z,21.94
2018-05-13T19:38:16.444Z,21.97
2018-05-13T19:40:42.327Z,21.90
2018-05-13T19:43:08.196Z,21.83
2018-05-13T19:45:34.097Z,21.79
2018-05-13T19:48:00.016Z,21.82
2018-05-13T19:50:25.882Z,21.70
2018-05-13T19:52:51.738Z,21.74
2018-05-13T19:55:17.583Z,21.68
2018-05-13T19:57:43.445Z,21.60
2018-05-13T20:00:09.394Z,21.54
2018-05-13T20:02:35.262Z,21.56
2018-05-13T20:05:01.237Z,21.51
2018-05-13T20:07:27.088Z,21.53
2018-05-13T20:09:53.026Z,21.51
2018-05-13T20:12:18.819Z,21.51
2018-05-13T20:14:44.694Z,21.41
2018-05-13T20:17:10.560Z,21.23
2018-05-13T20:19:36.413Z,21.26
2018-05-13T20:22:02.331Z,21.24
2018-05-13T20:24:28.173Z,21.12
2018-05-13T20:26:54.036Z,21.03
2018-05-13T20:29:19.885Z,20.99
2018-05-13T20:31:45.740Z,21.00
2018-05-13T20:34:11.601Z,20.96
2018-05-13T20:36:37.547Z,20.97
2018-05-13T20:39:03.567Z,20.87
2018-05-13T20:41:29.489Z,20.72
2018-05-13T20:43:55.462Z,20.69
2018-05-13T20:46:21.318Z,20.63
2018-05-13T20:48:47.194Z,20.65
2018-05-13T20:51:13.056Z,20.54
2018-05-13T20:53:38.933Z,20.59
2018-05-13T20:56:04.814Z,20.51
2018-05-13T20:58:30.674Z,20.50
2018-05-13T21:00:56.565Z,20.37
2018-05-13T21:03:22.428Z,20.36
2018-05-13T21:05:48.368Z,20.39
2018-05-13T21:08:14.261Z,20.26
2018-05-13T21:10:40.165Z,20.33
2018-05-13T21:13:06.017Z,20.25
2018-05-13T21:15:31.882Z,20.22
2018-05-13T21:17:57.773Z,20.23
2018-05-13T21:20:23.718Z,20.21
2018-05-13T21:22:49.573Z,20.10
2018-05-13T21:25:15.405Z,20.14
2018-05-13T21:27:41.245Z,20.11
2018-05-13T21:30:07.228Z,20.08
2018-05-13T21:32:33.057Z,20.11
2018-05-13T21:34:58.907Z,20.07
2018-05-13T21:37:24.768Z,19.98
2018-05-13T21:39:50.618Z,20.04
2018-05-13T21:42:16.526Z,20.03
2018-05-13T21:44:42.368Z,20.08
2018-05-13T21:47:08.336Z,20.12
2018-05-13T21:49:34.097Z,20.11
2018-05-13T21:51:59.925Z,19.95
2018-05-13T21:54:25.782Z,19.96
2018-05-13T21:56:51.648Z,19.89
2018-05-13T21:59:17.530Z,19.95
2018-05-13T22:01:43.417Z,19.92
2018-05-13T22:04:09.285Z,19.88
2018-05-13T22:06:35.188Z,19.90
2018-05-13T22:09:01.664Z,19.86
2018-05-13T22:11:27.559Z,19.85
2018-05-13T22:13:53.421Z,20.00
2018-05-13T22:16:19.266Z,19.84
2018-05-13T22:18:45.085Z,19.69
2018-05-13T22:21:10.940Z,19.68
2018-05-13T22:23:36.779Z,19.67
2018-05-13T22:26:02.682Z,19.65
2018-05-13T22:28:28.529Z,19.66
2018-05-13T22:30:54.396Z,19.61
2018-05-13T22:33:20.272Z,19.63
2018-05-13T22:35:46.120Z,19.61
2018-05-13T22:38:11.988Z,19.59
2018-05-13T22:40:37.857Z,19.50
2018-05-13T22:43:04.563Z,19.46
2018-05-13T22:45:30.415Z,19.53
2018-05-13T22:47:56.313Z,19.49
2018-05-13T22:50:22.165Z,19.40
2018-05-13T22:52:48.054Z,19.45
2018-05-13T22:55:13.932Z,19.40
2018-05-13T22:57:39.765Z,19.34
2018-05-13T23:00:05.633Z,19.29
2018-05-13T23:02:31.527Z,19.35
2018-05-13T23:04:57.406Z,19.27
2018-05-13T23:07:23.246Z,19.31
2018-05-13T23:09:49.136Z,19.32
2018-05-13T23:12:15.005Z,19.29
2018-05-13T23:14:40.873Z,19.21
2018-05-13T23:17:06.714Z,19.14
2018-05-13T23:19:32.584Z,19.18
2018-05-13T23:21:58.458Z,19.20
2018-05-13T23:24:24.298Z,19.26
2018-05-13T23:26:50.148Z,19.16
2018-05-13T23:29:15.985Z,19.12
2018-05-13T23:31:41.836Z,19.31
2018-05-13T23:34:07.695Z,19.24
2018-05-13T23:36:33.564Z,19.22
2018-05-13T23:38:59.437Z,19.16
2018-05-13T23:41:25.313Z,19.19
2018-05-13T23:43:51.176Z,19.15
2018-05-13T23:46:17.034Z,19.23
2018-05-13T23:48:42.872Z,19.24
2018-05-13T23:51:08.739Z,19.15
2018-05-13T23:53:34.604Z,19.26
2018-05-13T23:56:00.449Z,19.26
2018-05-13T23:58:26.305Z,19.16
